createdAt,value
2022-09-01T03:51:23.009Z,17.80
2022-09-01T04:41:17.416Z,17.40
2022-09-01T04:43:47.347Z,17.40
2022-09-01T04:46:17.557Z,17.40
2022-09-01T04:48:46.045Z,17.30
2022-09-01T04:51:15.399Z,17.40
2022-09-01T04:53:48.751Z,17.40
2022-09-01T04:56:19.396Z,17.40
2022-09-01T04:58:47.811Z,17.40
2022-09-01T05:47:26.263Z,17.20
2022-09-01T05:49:53.732Z,17.20
2022-09-01T05:52:24.900Z,17.20
2022-09-01T05:54:52.591Z,17.30
2022-09-01T05:57:33.874Z,17.30
2022-09-01T06:15:30.837Z,17.40
2022-09-01T06:17:58.654Z,17.40
2022-09-01T06:20:26.386Z,17.40
2022-09-01T06:22:53.638Z,17.40
2022-09-01T06:25:21.471Z,17.50
2022-09-01T06:27:48.514Z,17.50
2022-09-01T07:45:28.761Z,18.70
2022-09-01T07:47:57.061Z,18.80
2022-09-01T08:24:36.596Z,21.70
2022-09-01T08:27:04.405Z,22.10
2022-09-01T08:29:31.027Z,22.40
2022-09-01T08:31:59.194Z,22.70
2022-09-01T08:34:26.558Z,23.00
2022-09-01T08:36:53.230Z,23.20
2022-09-01T08:39:20.199Z,23.60
2022-09-01T08:41:58.852Z,23.80
2022-09-01T08:44:45.980Z,24.10
2022-09-01T08:47:16.240Z,24.40
2022-09-01T08:49:47.189Z,24.70
2022-09-01T08:52:25.291Z,24.90
2022-09-01T08:55:01.940Z,25.20
2022-09-01T08:57:41.894Z,25.50
2022-09-01T09:00:14.681Z,25.70
2022-09-01T09:02:48.019Z,25.90
2022-09-01T09:05:40.131Z,26.20
2022-09-01T09:08:22.279Z,26.40
2022-09-01T09:10:59.971Z,26.60
2022-09-01T09:13:53.856Z,26.90
2022-09-01T09:16:37.725Z,27.10
2022-09-01T09:19:35.644Z,27.30
2022-09-01T09:22:07.700Z,27.60
2022-09-01T09:24:53.039Z,27.80
2022-09-01T09:27:24.442Z,28.00
2022-09-01T09:29:57.245Z,28.20
2022-09-01T09:33:15.075Z,28.40
2022-09-01T09:35:37.568Z,28.70
2022-09-01T09:38:32.735Z,28.90
2022-09-01T09:41:17.220Z,29.10
2022-09-01T09:43:52.270Z,29.30
2022-09-01T09:46:38.676Z,29.60
2022-09-01T09:49:35.884Z,29.70
2022-09-01T09:52:10.499Z,30.00
2022-09-01T09:54:39.774Z,30.20
2022-09-01T09:57:09.319Z,30.40
2022-09-01T09:59:57.624Z,30.60
2022-09-01T10:02:33.836Z,30.80
2022-09-01T10:05:22.268Z,31.00
2022-09-01T10:07:49.613Z,31.20
2022-09-01T10:10:30.827Z,31.50
2022-09-01T10:12:59.143Z,31.60
2022-09-01T10:15:30.468Z,31.80
2022-09-01T10:18:31.982Z,32.00
2022-09-01T10:21:08.427Z,32.20
2022-09-01T10:23:38.717Z,32.40
2022-09-01T10:26:24.068Z,32.60
2022-09-01T10:29:15.900Z,32.70
2022-09-01T10:31:42.926Z,32.90
2022-09-01T10:34:19.345Z,33.10
2022-09-01T10:36:55.688Z,33.20
2022-09-01T10:39:27.683Z,33.30
2022-09-01T10:42:08.910Z,33.50
2022-09-01T10:44:57.762Z,33.60
2022-09-01T10:47:26.953Z,33.80
2022-09-01T10:49:53.612Z,33.90
2022-09-01T10:52:43.416Z,34.00
2022-09-01T10:55:26.229Z,34.10
2022-09-01T10:58:08.938Z,34.10
2022-09-01T11:03:52.401Z,34.20
2022-09-01T11:06:34.707Z,34.30
2022-09-01T11:09:05.644Z,34.40
2022-09-01T11:11:44.284Z,34.50
2022-09-01T11:14:22.921Z,34.60
2022-09-01T11:17:17.353Z,34.70
2022-09-01T11:19:47.325Z,34.90
2022-09-01T11:22:14.077Z,35.10
2022-09-01T11:24:44.362Z,35.20
2022-09-01T11:27:33.552Z,35.30
2022-09-01T11:30:06.824Z,35.40
2022-09-01T11:32:39.594Z,35.60
2022-09-01T11:35:18.276Z,35.70
2022-09-01T11:37:49.475Z,35.80
2022-09-01T11:40:27.087Z,35.90
2022-09-01T11:43:04.429Z,36.10
2022-09-01T11:45:33.785Z,36.10
2022-09-01T11:48:10.771Z,36.30
2022-09-01T11:50:40.060Z,36.40
2022-09-01T11:53:13.223Z,36.40
2022-09-01T11:55:45.569Z,36.60
2022-09-01T11:58:33.728Z,36.70
2022-09-01T12:01:18.812Z,36.70
2022-09-01T12:03:47.324Z,36.80
2022-09-01T12:06:27.040Z,36.90
2022-09-01T12:08:59.677Z,37.00
2022-09-01T12:11:34.713Z,37.10
2022-09-01T12:14:11.191Z,37.10
2022-09-01T12:16:42.454Z,37.10
2022-09-01T12:19:22.207Z,37.20
2022-09-01T12:22:01.091Z,37.30
2022-09-01T12:24:31.848Z,37.30
2022-09-01T12:26:59.344Z,37.30
2022-09-01T12:29:28.898Z,37.40
2022-09-01T12:31:59.985Z,37.40
2022-09-01T12:34:33.072Z,37.40
2022-09-01T12:37:11.363Z,37.40
2022-09-01T12:39:44.809Z,37.50
2022-09-01T12:42:24.991Z,37.50
2022-09-01T12:45:05.811Z,37.50
2022-09-01T12:47:40.293Z,37.50
2022-09-01T12:50:27.300Z,37.60
2022-09-01T12:52:55.769Z,37.60
2022-09-01T12:58:10.664Z,37.60
2022-09-01T13:01:16.087Z,37.60
2022-09-01T13:03:43.481Z,37.60
2022-09-01T13:06:10.953Z,37.70
2022-09-01T13:08:37.892Z,37.80
2022-09-01T13:11:09.157Z,37.80
2022-09-01T13:13:38.002Z,37.80
2022-09-01T13:16:12.382Z,37.90
2022-09-01T13:21:29.045Z,37.90
2022-09-01T13:23:56.306Z,38.00
2022-09-01T13:26:23.621Z,37.90
2022-09-01T13:28:51.721Z,37.90
2022-09-01T13:31:34.331Z,38.00
2022-09-01T13:34:10.949Z,37.90
2022-09-01T13:36:51.629Z,37.90
2022-09-01T13:39:19.387Z,37.90
2022-09-01T13:41:47.676Z,37.90
2022-09-01T13:44:16.949Z,37.90
2022-09-01T13:47:00.898Z,37.80
2022-09-01T13:52:19.132Z,37.80
2022-09-01T13:54:45.996Z,37.70
2022-09-01T13:57:14.947Z,37.80
2022-09-01T13:59:41.794Z,37.70
2022-09-01T14:02:08.574Z,37.70
2022-09-01T14:04:35.764Z,37.60
2022-09-01T14:07:02.920Z,37.60
2022-09-01T14:09:32.171Z,37.60
2022-09-01T14:11:59.830Z,37.60
2022-09-01T14:14:26.696Z,37.50
2022-09-01T14:16:54.014Z,37.40
2022-09-01T14:19:24.544Z,37.40
2022-09-01T14:21:51.460Z,37.30
2022-09-01T14:24:19.858Z,37.30
2022-09-01T14:26:47.378Z,37.20
2022-09-01T14:29:14.117Z,37.10
2022-09-01T14:31:41.060Z,37.10
2022-09-01T14:34:07.672Z,37.00
2022-09-01T14:36:34.441Z,37.00
2022-09-01T14:39:01.540Z,36.90
2022-09-01T14:41:28.273Z,36.80
2022-09-01T14:44:03.003Z,36.70
2022-09-01T14:46:31.752Z,36.70
2022-09-01T14:48:58.403Z,36.60
2022-09-01T14:52:10.216Z,36.50
2022-09-01T14:54:16.164Z,36.40
2022-09-01T14:57:28.629Z,36.20
2022-09-01T14:59:30.188Z,36.10
2022-09-01T15:01:56.889Z,36.00
2022-09-01T15:04:24.087Z,35.90
2022-09-01T15:06:51.453Z,35.80
2022-09-01T15:09:19.196Z,35.60
2022-09-01T15:11:46.497Z,35.60
2022-09-01T15:14:13.393Z,35.40
2022-09-01T15:16:41.412Z,35.20
2022-09-01T15:19:10.918Z,35.10
2022-09-01T15:21:39.645Z,35.00
2022-09-01T15:24:07.928Z,34.80
2022-09-01T15:26:34.924Z,34.70
2022-09-01T15:29:02.034Z,34.50
2022-09-01T15:31:33.156Z,34.30
2022-09-01T15:34:02.194Z,34.10
2022-09-01T15:36:30.717Z,33.90
2022-09-01T15:38:58.656Z,33.80
2022-09-01T15:41:29.081Z,33.60
2022-09-01T15:43:56.597Z,33.40
2022-09-01T15:46:31.717Z,33.20
2022-09-01T15:48:59.908Z,33.00
2022-09-01T15:51:44.977Z,32.80
2022-09-01T15:54:14.403Z,32.60
2022-09-01T15:56:41.286Z,32.40
2022-09-01T15:59:08.565Z,32.10
2022-09-01T16:01:38.807Z,32.00
2022-09-01T16:04:07.828Z,31.80
2022-09-01T16:06:35.036Z,31.60
2022-09-01T16:09:02.219Z,31.50
2022-09-01T16:11:28.947Z,31.30
2022-09-01T16:13:55.923Z,31.20
2022-09-01T16:16:47.306Z,31.00
2022-09-01T16:19:31.994Z,30.80
2022-09-01T16:22:05.989Z,30.60
2022-09-01T16:24:42.482Z,30.50
2022-09-01T16:27:13.991Z,30.40
2022-09-01T16:29:49.336Z,30.20
2022-09-01T16:32:16.355Z,30.00
2022-09-01T16:34:47.055Z,29.90
2022-09-01T16:37:52.119Z,29.80
2022-09-01T16:40:36.936Z,29.60
2022-09-01T16:43:23.017Z,29.50
2022-09-01T16:46:08.952Z,29.40
2022-09-01T16:48:35.852Z,29.20
2022-09-01T16:51:22.207Z,29.10
2022-09-01T16:54:03.627Z,29.00
2022-09-01T16:56:58.519Z,28.90
2022-09-01T16:59:59.017Z,28.70
2022-09-01T17:02:49.569Z,28.60
2022-09-01T17:05:53.692Z,28.40
2022-09-01T17:08:40.341Z,28.40
2022-09-01T17:11:25.051Z,28.10
2022-09-01T17:13:52.070Z,28.10
2022-09-01T17:16:22.128Z,28.00
2022-09-01T17:19:00.405Z,27.90
2022-09-01T17:21:55.988Z,27.70
2022-09-01T17:24:25.910Z,27.60
2022-09-01T17:26:55.643Z,27.60
2022-09-01T17:29:40.936Z,27.40
2022-09-01T17:32:41.432Z,27.40
2022-09-01T17:35:37.537Z,27.20
2022-09-01T17:38:14.381Z,27.10
2022-09-01T17:41:06.902Z,27.00
2022-09-01T17:44:13.320Z,26.90
2022-09-01T17:46:46.830Z,26.70
2022-09-01T17:49:29.764Z,26.60
2022-09-01T17:52:20.303Z,26.50
2022-09-01T17:54:46.878Z,26.40
2022-09-01T17:57:24.462Z,26.20
2022-09-01T18:00:27.468Z,26.10
2022-09-01T18:03:32.952Z,26.10
2022-09-01T18:06:04.545Z,25.90
2022-09-01T18:08:40.803Z,25.80
2022-09-01T18:11:13.462Z,25.70
2022-09-01T18:13:55.569Z,25.60
2022-09-01T18:16:28.762Z,25.50
2022-09-01T18:19:00.726Z,25.40
2022-09-01T18:21:34.629Z,25.30
2022-09-01T18:24:45.788Z,25.20
2022-09-01T18:27:13.312Z,25.10
2022-09-01T18:29:40.558Z,25.00
2022-09-01T18:32:30.204Z,24.90
2022-09-01T18:35:17.233Z,24.80
2022-09-01T18:38:09.300Z,24.70
2022-09-01T18:41:00.309Z,24.60
2022-09-01T18:43:37.945Z,24.50
2022-09-01T18:46:19.080Z,24.40
2022-09-01T18:49:15.591Z,24.30
2022-09-01T18:52:01.434Z,24.20
2022-09-01T18:54:49.576Z,24.10
2022-09-01T18:57:21.090Z,24.00
2022-09-01T19:00:01.894Z,24.00
2022-09-01T19:02:51.175Z,23.80
2022-09-01T19:05:38.358Z,23.80
2022-09-01T19:08:34.248Z,23.70
2022-09-01T19:11:21.234Z,23.60
2022-09-01T19:14:11.267Z,23.50
2022-09-01T19:17:08.539Z,23.40
2022-09-01T19:19:46.528Z,23.30
2022-09-01T19:22:18.727Z,23.20
2022-09-01T19:25:16.617Z,23.20
2022-09-01T19:27:55.748Z,23.10
2022-09-01T19:30:22.519Z,23.10
2022-09-01T19:32:50.685Z,23.00
2022-09-01T19:35:17.832Z,22.90
2022-09-01T19:37:47.900Z,22.90
2022-09-01T19:40:18.262Z,22.80
2022-09-01T19:42:59.912Z,22.80
2022-09-01T19:45:56.819Z,22.70
2022-09-01T19:48:35.290Z,22.60
2022-09-01T19:51:13.067Z,22.60
2022-09-01T19:53:58.105Z,22.60
2022-09-01T19:56:29.017Z,22.50
2022-09-01T19:59:27.063Z,22.50
2022-09-01T20:02:00.899Z,22.40
2022-09-01T20:04:27.630Z,22.30
2022-09-01T20:07:00.232Z,22.20
2022-09-01T20:10:16.559Z,22.20
2022-09-01T20:13:14.625Z,22.10
2022-09-01T20:15:46.570Z,22.10
2022-09-01T20:18:26.789Z,22.10
2022-09-01T20:20:55.671Z,22.00
2022-09-01T20:23:37.058Z,22.00
2022-09-01T20:26:27.648Z,21.90
2022-09-01T20:29:21.286Z,21.90
2022-09-01T20:31:56.947Z,21.90
2022-09-01T20:34:37.542Z,21.80
2022-09-01T20:37:10.592Z,21.80
2022-09-01T20:39:56.014Z,21.70
2022-09-01T20:43:00.383Z,21.70
2022-09-01T20:45:28.955Z,21.70
2022-09-01T20:48:14.343Z,21.60
2022-09-01T20:51:32.837Z,21.60
2022-09-01T20:54:39.753Z,21.60
2022-09-01T20:57:26.055Z,21.60
2022-09-01T21:00:01.802Z,21.50
2022-09-01T21:02:58.411Z,21.40
2022-09-01T21:05:57.524Z,21.40
2022-09-01T21:08:43.080Z,21.40
2022-09-01T21:11:21.553Z,21.30
2022-09-01T21:14:22.774Z,21.30
2022-09-01T21:17:02.620Z,21.20
2022-09-01T21:19:56.945Z,21.20
2022-09-01T21:22:23.631Z,21.20
2022-09-01T21:24:50.748Z,21.20
2022-09-01T21:27:27.615Z,21.20
2022-09-01T21:29:59.892Z,21.10
2022-09-01T21:32:29.246Z,21.10
2022-09-01T21:34:56.850Z,21.10
2022-09-01T21:37:24.684Z,21.10
2022-09-01T21:39:53.454Z,21.10
2022-09-01T21:42:30.430Z,21.00
2022-09-01T21:44:58.299Z,21.00
2022-09-01T21:47:26.457Z,20.90
2022-09-01T21:49:53.887Z,21.00
2022-09-01T21:52:20.879Z,20.90
2022-09-01T21:54:48.390Z,20.90
2022-09-01T21:57:15.204Z,20.90
2022-09-01T21:59:41.817Z,20.90
2022-09-01T22:02:08.536Z,20.90
2022-09-01T22:04:36.995Z,20.80
2022-09-01T22:07:05.439Z,20.80
2022-09-01T22:09:32.427Z,20.80
2022-09-01T22:11:59.021Z,20.70
2022-09-01T22:14:27.712Z,20.80
2022-09-01T22:16:54.774Z,20.80
2022-09-01T22:19:21.565Z,20.70
2022-09-01T22:21:48.474Z,20.70
2022-09-01T22:24:19.461Z,20.70
2022-09-01T22:26:47.448Z,20.70
2022-09-01T22:29:14.168Z,20.70
2022-09-01T22:31:40.999Z,20.60
2022-09-01T22:34:08.283Z,20.60
2022-09-01T22:36:39.254Z,20.60
2022-09-01T22:39:07.277Z,20.60
2022-09-01T22:41:35.088Z,20.60
2022-09-01T22:44:03.147Z,20.50
2022-09-01T22:46:31.304Z,20.50
2022-09-01T22:48:59.407Z,20.50
2022-09-01T22:51:26.960Z,20.50
2022-09-01T22:53:54.551Z,20.50
2022-09-01T22:56:31.045Z,20.50
2022-09-01T22:59:01.624Z,20.40
2022-09-01T23:01:34.061Z,20.40
2022-09-01T23:04:04.549Z,20.40
2022-09-01T23:06:32.835Z,20.30
2022-09-01T23:09:01.411Z,20.40
2022-09-01T23:11:28.887Z,20.30
2022-09-01T23:13:55.739Z,20.30
2022-09-01T23:16:24.787Z,20.20
2022-09-01T23:18:52.465Z,20.20
2022-09-01T23:21:23.037Z,20.20
2022-09-01T23:23:55.150Z,20.20
2022-09-01T23:26:26.858Z,20.10
2022-09-01T23:28:53.503Z,20.10
2022-09-01T23:31:24.589Z,20.10
2022-09-01T23:33:52.224Z,20.10
2022-09-01T23:36:20.992Z,20.10
2022-09-01T23:38:48.521Z,20.10
2022-09-01T23:41:18.609Z,20.10
2022-09-01T23:43:45.614Z,20.10
2022-09-01T23:46:43.321Z,20.00
2022-09-01T23:49:11.426Z,20.00
2022-09-01T23:51:38.994Z,20.00
2022-09-01T23:54:07.264Z,19.90
2022-09-01T23:56:33.931Z,19.90
2022-09-01T23:59:01.192Z,19.90
